createdAt,value
2023-04-01T00:01:01.734Z,98359.35
2023-04-01T00:03:30.969Z,98350.63
2023-04-01T00:06:00.627Z,98346.83
2023-04-01T00:08:29.077Z,98348.08
2023-04-01T00:10:58.331Z,98348.31
2023-04-01T00:13:27.566Z,98346.31
2023-04-01T00:15:56.664Z,98341.73
2023-04-01T00:18:26.170Z,98340.77
2023-04-01T00:20:54.590Z,98335.04
2023-04-01T00:23:22.851Z,98335.67
2023-04-01T00:25:51.036Z,98337.65
2023-04-01T00:28:21.064Z,98340.85
2023-04-01T00:30:49.062Z,98341.11
2023-04-01T00:33:17.779Z,98341.55
2023-04-01T00:35:46.257Z,98337.17
2023-04-01T00:38:14.780Z,98338.48
2023-04-01T00:40:45.507Z,98339.80
2023-04-01T00:43:20.402Z,98335.89
2023-04-01T00:45:50.493Z,98337.13
2023-04-01T00:48:22.638Z,98335.22
2023-04-01T00:50:56.374Z,98335.52
2023-04-01T00:53:25.537Z,98336.20
2023-04-01T00:56:02.294Z,98334.98
2023-04-01T00:58:34.112Z,98334.35
2023-04-01T01:01:02.596Z,98334.09
2023-04-01T01:03:30.681Z,98330.67
2023-04-01T01:06:27.487Z,98326.52
2023-04-01T01:09:08.698Z,98327.20
2023-04-01T01:11:52.473Z,98324.98
2023-04-01T01:14:51.997Z,98325.13
2023-04-01T01:17:29.103Z,98327.71
2023-04-01T01:20:25.944Z,98329.44
2023-04-01T01:23:26.139Z,98335.28
2023-04-01T01:26:15.422Z,98333.35
2023-04-01T01:28:49.734Z,98334.69
2023-04-01T01:31:17.705Z,98336.23
2023-04-01T01:34:08.457Z,98334.81
2023-04-01T01:36:40.155Z,98340.14
2023-04-01T01:39:11.131Z,98344.99
2023-04-01T01:41:41.390Z,98338.26
2023-04-01T01:44:12.370Z,98336.40
2023-04-01T01:46:42.809Z,98335.19
2023-04-01T01:49:13.076Z,98334.55
2023-04-01T01:51:44.159Z,98335.30
2023-04-01T01:54:15.519Z,98328.39
2023-04-01T01:56:48.616Z,98328.03
2023-04-01T01:59:22.041Z,98326.65
2023-04-01T02:01:53.191Z,98321.64
2023-04-01T02:04:23.229Z,98317.36
2023-04-01T02:06:59.153Z,98317.16
2023-04-01T02:09:27.744Z,98316.39
2023-04-01T02:12:03.223Z,98313.38
2023-04-01T02:14:45.667Z,98312.87
2023-04-01T02:17:20.598Z,98313.64
2023-04-01T02:19:54.327Z,98311.45
2023-04-01T02:22:27.596Z,98309.85
2023-04-01T02:24:59.730Z,98307.70
2023-04-01T02:27:27.822Z,98305.00
2023-04-01T02:29:56.095Z,98301.28
2023-04-01T02:32:24.693Z,98301.75
2023-04-01T02:34:53.115Z,98303.88
2023-04-01T02:37:21.946Z,98302.13
2023-04-01T02:39:49.941Z,98303.08
2023-04-01T02:42:17.958Z,98309.25
2023-04-01T02:44:46.691Z,98308.97
2023-04-01T02:47:15.501Z,98315.68
2023-04-01T02:49:44.282Z,98318.45
2023-04-01T02:52:12.338Z,98317.19
2023-04-01T02:54:40.581Z,98321.41
2023-04-01T02:57:08.785Z,98315.30
2023-04-01T02:59:38.164Z,98315.98
2023-04-01T03:02:07.625Z,98315.56
2023-04-01T03:04:35.858Z,98323.14
2023-04-01T03:07:04.100Z,98325.39
2023-04-01T03:09:32.505Z,98324.30
2023-04-01T03:12:00.759Z,98326.02
2023-04-01T03:14:29.910Z,98329.38
2023-04-01T03:16:58.404Z,98328.50
2023-04-01T03:19:26.667Z,98328.49
2023-04-01T03:21:55.412Z,98329.35
2023-04-01T03:24:23.892Z,98335.38
2023-04-01T03:26:51.954Z,98337.37
2023-04-01T03:29:20.560Z,98336.10
2023-04-01T03:31:48.761Z,98339.39
2023-04-01T03:34:16.931Z,98336.73
2023-04-01T03:36:45.000Z,98341.92
2023-04-01T03:39:13.799Z,98344.31
2023-04-01T03:41:42.567Z,98343.20
2023-04-01T03:44:10.701Z,98345.77
2023-04-01T03:46:39.180Z,98346.29
2023-04-01T03:49:12.447Z,98348.86
2023-04-01T03:51:43.212Z,98348.91
2023-04-01T03:54:12.144Z,98348.92
2023-04-01T03:56:40.946Z,98349.52
2023-04-01T03:59:09.484Z,98357.95
2023-04-01T04:02:53.209Z,98356.59
2023-04-01T04:05:27.545Z,98357.33
2023-04-01T04:07:55.710Z,98364.60
2023-04-01T04:10:24.439Z,98362.77
2023-04-01T04:12:53.133Z,98366.17
2023-04-01T04:15:22.959Z,98370.99
2023-04-01T04:17:51.591Z,98374.48
2023-04-01T04:20:20.005Z,98379.29
2023-04-01T04:22:48.053Z,98378.45
2023-04-01T04:25:16.168Z,98379.02
2023-04-01T04:27:44.623Z,98380.52
2023-04-01T04:34:38.020Z,98379.91
2023-04-01T04:37:06.179Z,98384.39
2023-04-01T04:39:38.095Z,98380.57
2023-04-01T04:42:07.257Z,98378.93
2023-04-01T04:44:35.427Z,98380.21
2023-04-01T04:47:03.955Z,98382.16
2023-04-01T04:49:32.614Z,98384.98
2023-04-01T04:52:01.318Z,98383.05
2023-04-01T04:54:30.561Z,98387.70
2023-04-01T04:57:00.207Z,98387.22
2023-04-01T04:59:30.179Z,98388.17
2023-04-01T05:02:05.816Z,98394.05
2023-04-01T05:04:38.068Z,98392.11
2023-04-01T05:07:07.808Z,98391.69
2023-04-01T05:09:35.990Z,98387.84
2023-04-01T05:12:05.236Z,98385.50
2023-04-01T05:14:48.997Z,98383.91
2023-04-01T05:17:17.278Z,98385.71
2023-04-01T05:19:45.517Z,98386.17
2023-04-01T05:22:13.542Z,98386.24
2023-04-01T05:24:42.525Z,98386.42
2023-04-01T05:27:17.301Z,98386.04
2023-04-01T05:29:45.964Z,98387.94
2023-04-01T05:32:32.961Z,98389.97
2023-04-01T05:35:02.136Z,98392.77
2023-04-01T05:37:31.158Z,98390.59
2023-04-01T05:39:59.724Z,98391.08
2023-04-01T05:42:28.348Z,98390.81
2023-04-01T05:44:57.256Z,98388.07
2023-04-01T05:47:51.892Z,98386.95
2023-04-01T05:50:20.844Z,98389.01
2023-04-01T05:52:49.141Z,98391.42
2023-04-01T05:55:17.729Z,98390.69
2023-04-01T05:57:47.614Z,98394.51
2023-04-01T06:00:17.020Z,98396.95
2023-04-01T06:02:45.271Z,98399.64
2023-04-01T06:05:19.139Z,98402.07
2023-04-01T06:07:47.840Z,98401.35
2023-04-01T06:10:19.965Z,98399.84
2023-04-01T06:13:06.745Z,98404.32
2023-04-01T06:16:06.029Z,98399.94
2023-04-01T06:18:47.022Z,98397.98
2023-04-01T06:21:37.524Z,98398.69
2023-04-01T06:24:28.962Z,98397.85
2023-04-01T06:27:12.097Z,98403.70
2023-04-01T06:29:46.261Z,98403.75
2023-04-01T06:32:22.406Z,98405.55
2023-04-01T06:34:56.689Z,98414.11
2023-04-01T06:37:40.268Z,98409.52
2023-04-01T06:40:27.179Z,98413.23
2023-04-01T06:43:16.479Z,98412.81
2023-04-01T06:46:37.718Z,98415.94
2023-04-01T06:50:19.612Z,98414.64
2023-04-01T06:53:31.698Z,98414.54
2023-04-01T06:56:38.666Z,98414.13
2023-04-01T06:59:18.662Z,98411.27
2023-04-01T07:01:52.178Z,98412.46
2023-04-01T07:04:42.112Z,98415.91
2023-04-01T07:07:25.363Z,98416.77
2023-04-01T07:10:02.126Z,98419.36
2023-04-01T07:12:33.283Z,98414.39
2023-04-01T07:15:38.542Z,98414.55
2023-04-01T07:18:22.813Z,98415.15
2023-04-01T07:20:52.979Z,98413.52
2023-04-01T07:23:29.701Z,98413.96
2023-04-01T07:26:24.604Z,98415.09
2023-04-01T07:29:01.810Z,98414.09
2023-04-01T07:32:03.236Z,98416.45
2023-04-01T07:34:57.517Z,98414.27
2023-04-01T07:38:13.487Z,98415.78
2023-04-01T07:40:53.778Z,98416.29
2023-04-01T07:43:28.075Z,98414.08
2023-04-01T07:46:08.158Z,98413.51
2023-04-01T07:49:02.958Z,98418.53
2023-04-01T07:51:40.661Z,98415.32
2023-04-01T07:54:23.032Z,98419.88
2023-04-01T07:57:09.936Z,98422.50
2023-04-01T07:59:53.130Z,98423.58
2023-04-01T08:02:44.735Z,98425.08
2023-04-01T08:05:28.427Z,98422.04
2023-04-01T08:08:12.109Z,98425.35
2023-04-01T08:11:28.476Z,98426.71
2023-04-01T08:14:46.123Z,98430.49
2023-04-01T08:17:51.079Z,98434.02
2023-04-01T08:20:38.195Z,98433.64
2023-04-01T08:23:18.247Z,98434.70
2023-04-01T08:26:01.629Z,98435.67
2023-04-01T08:28:38.444Z,98437.42
2023-04-01T08:31:13.253Z,98440.96
2023-04-01T08:33:46.265Z,98440.18
2023-04-01T08:36:27.807Z,98441.21
2023-04-01T08:39:39.172Z,98439.39
2023-04-01T08:42:26.390Z,98437.29
2023-04-01T08:45:36.214Z,98441.39
2023-04-01T08:48:09.961Z,98447.23
2023-04-01T08:51:10.838Z,98447.73
2023-04-01T08:54:05.040Z,98449.23
2023-04-01T08:56:36.318Z,98451.32
2023-04-01T08:59:33.860Z,98448.56
2023-04-01T09:02:29.946Z,98448.91
2023-04-01T09:05:29.688Z,98451.92
2023-04-01T09:08:24.478Z,98452.52
2023-04-01T09:11:24.486Z,98459.23
2023-04-01T09:14:24.514Z,98457.89
2023-04-01T09:17:20.074Z,98466.88
2023-04-01T09:19:58.631Z,98467.54
2023-04-01T09:23:14.775Z,98469.06
2023-04-01T09:26:10.638Z,98470.60
2023-04-01T09:28:56.332Z,98472.45
2023-04-01T09:31:52.299Z,98476.11
2023-04-01T09:35:20.121Z,98473.08
2023-04-01T09:38:19.385Z,98472.91
2023-04-01T09:40:56.928Z,98474.17
2023-04-01T09:44:02.697Z,98471.58
2023-04-01T09:46:44.253Z,98476.72
2023-04-01T09:49:27.849Z,98477.02
2023-04-01T09:52:28.048Z,98478.02
2023-04-01T09:55:17.704Z,98481.45
2023-04-01T09:57:58.065Z,98476.86
2023-04-01T10:01:26.621Z,98480.30
2023-04-01T10:04:36.419Z,98481.71
2023-04-01T10:07:20.079Z,98485.77
2023-04-01T10:10:07.086Z,98483.14
2023-04-01T10:12:53.748Z,98481.96
2023-04-01T10:15:34.215Z,98487.59
2023-04-01T10:18:33.052Z,98489.59
2023-04-01T10:21:40.800Z,98490.59
2023-04-01T10:24:36.206Z,98494.46
2023-04-01T10:27:12.526Z,98495.80
2023-04-01T10:30:36.598Z,98497.27
2023-04-01T10:33:27.812Z,98494.18
2023-04-01T10:36:16.182Z,98496.35
2023-04-01T10:39:33.209Z,98500.83
2023-04-01T10:42:48.907Z,98498.64
2023-04-01T10:46:04.820Z,98500.30
2023-04-01T10:48:40.026Z,98493.65
2023-04-01T10:51:57.227Z,98495.38
2023-04-01T10:55:06.880Z,98495.02
2023-04-01T10:58:19.139Z,98494.41
2023-04-01T11:05:21.117Z,98496.43
2023-04-01T11:08:06.549Z,98495.98
2023-04-01T11:10:53.384Z,98499.76
2023-04-01T11:13:42.321Z,98498.52
2023-04-01T11:16:33.117Z,98497.13
2023-04-01T11:19:46.768Z,98497.69
2023-04-01T11:22:17.604Z,98493.42
2023-04-01T11:25:05.801Z,98501.48
2023-04-01T11:27:42.873Z,98497.77
2023-04-01T11:31:11.161Z,98502.56
2023-04-01T11:33:56.141Z,98495.79
2023-04-01T11:36:42.758Z,98496.91
2023-04-01T11:39:22.261Z,98498.84
2023-04-01T11:42:33.902Z,98498.09
2023-04-01T11:45:30.730Z,98497.85
2023-04-01T11:48:36.688Z,98501.48
2023-04-01T11:51:39.305Z,98505.02
2023-04-01T11:54:49.731Z,98503.02
2023-04-01T11:57:51.768Z,98507.70
2023-04-01T12:00:52.778Z,98504.64
2023-04-01T12:03:43.122Z,98505.80
2023-04-01T12:06:30.154Z,98504.66
2023-04-01T12:09:34.280Z,98507.42
2023-04-01T12:12:06.960Z,98506.71
2023-04-01T12:14:55.849Z,98507.98
2023-04-01T12:17:55.257Z,98514.75
2023-04-01T12:20:35.767Z,98516.17
2023-04-01T12:23:43.006Z,98514.71
2023-04-01T12:26:31.153Z,98515.52
2023-04-01T12:29:38.407Z,98514.23
2023-04-01T12:32:31.555Z,98512.25
2023-04-01T12:35:07.813Z,98512.67
2023-04-01T12:38:01.443Z,98515.43
2023-04-01T12:40:40.442Z,98514.39
2023-04-01T12:43:29.356Z,98514.71
2023-04-01T12:46:26.887Z,98513.20
2023-04-01T12:49:06.057Z,98511.80
2023-04-01T12:51:47.956Z,98516.71
2023-04-01T12:54:21.333Z,98517.30
2023-04-01T12:57:18.587Z,98517.81
2023-04-01T12:59:52.944Z,98518.29
2023-04-01T13:02:54.909Z,98513.27
2023-04-01T13:05:57.142Z,98510.15
2023-04-01T13:08:40.941Z,98509.39
2023-04-01T13:11:32.496Z,98509.75
2023-04-01T13:14:18.462Z,98513.39
2023-04-01T13:17:04.295Z,98516.05
2023-04-01T13:19:43.200Z,98515.84
2023-04-01T13:22:35.885Z,98517.59
2023-04-01T13:25:15.614Z,98520.55
2023-04-01T13:27:48.347Z,98521.73
2023-04-01T13:30:40.741Z,98524.15
2023-04-01T13:33:30.460Z,98529.19
2023-04-01T13:36:19.715Z,98529.89
2023-04-01T13:39:08.347Z,98535.08
2023-04-01T13:42:15.349Z,98540.92
2023-04-01T13:44:44.709Z,98540.77
2023-04-01T13:47:23.574Z,98539.95
2023-04-01T13:49:59.134Z,98543.79
2023-04-01T13:52:47.852Z,98544.86
2023-04-01T13:55:45.342Z,98546.61
2023-04-01T13:58:15.299Z,98555.18
2023-04-01T14:01:01.151Z,98555.42
2023-04-01T14:03:46.664Z,98560.69
2023-04-01T14:06:29.594Z,98563.34
2023-04-01T14:09:34.469Z,98564.11
2023-04-01T14:12:02.810Z,98571.94
2023-04-01T14:14:50.481Z,98575.23
2023-04-01T14:17:48.748Z,98577.38
2023-04-01T14:20:32.147Z,98583.70
2023-04-01T14:23:14.479Z,98588.63
2023-04-01T14:26:02.289Z,98589.92
2023-04-01T14:28:56.543Z,98592.45
2023-04-01T14:31:57.157Z,98594.28
2023-04-01T14:35:01.787Z,98601.02
2023-04-01T14:38:06.960Z,98602.97
2023-04-01T14:40:48.248Z,98607.36
2023-04-01T14:44:09.154Z,98609.22
2023-04-01T14:46:50.957Z,98619.02
2023-04-01T14:49:20.564Z,98620.30
2023-04-01T14:51:48.807Z,98620.69
2023-04-01T14:54:23.240Z,98629.21
2023-04-01T14:57:01.724Z,98630.30
2023-04-01T14:59:29.585Z,98631.08
2023-04-01T15:02:10.106Z,98637.75
2023-04-01T15:05:04.743Z,98639.44
2023-04-01T15:07:55.949Z,98643.67
2023-04-01T15:10:36.338Z,98645.55
2023-04-01T15:13:14.214Z,98652.33
2023-04-01T15:15:48.897Z,98653.69
2023-04-01T15:18:59.002Z,98656.27
2023-04-01T15:21:56.691Z,98655.98
2023-04-01T15:24:27.613Z,98663.48
2023-04-01T15:27:05.720Z,98670.00
2023-04-01T15:30:01.315Z,98675.91
2023-04-01T15:32:44.503Z,98680.61
2023-04-01T15:36:02.042Z,98682.14
2023-04-01T15:38:33.651Z,98686.09
2023-04-01T15:41:23.846Z,98693.52
2023-04-01T15:43:55.144Z,98697.81
2023-04-01T15:46:25.001Z,98702.88
2023-04-01T15:49:15.727Z,98704.74
2023-04-01T15:51:47.708Z,98707.48
2023-04-01T15:54:20.472Z,98712.89
2023-04-01T15:57:08.611Z,98717.72
2023-04-01T15:59:44.389Z,98720.10
2023-04-01T16:02:44.106Z,98719.91
2023-04-01T16:05:29.201Z,98730.73
2023-04-01T16:08:24.627Z,98733.02
2023-04-01T16:11:04.883Z,98740.84
2023-04-01T16:13:55.322Z,98745.27
2023-04-01T16:16:47.002Z,98755.22
2023-04-01T16:19:36.880Z,98754.38
2023-04-01T16:22:29.249Z,98759.95
2023-04-01T16:25:21.640Z,98758.92
2023-04-01T16:27:58.642Z,98765.45
2023-04-01T16:30:57.694Z,98769.56
2023-04-01T16:33:35.833Z,98770.14
2023-04-01T16:36:25.036Z,98778.38
2023-04-01T16:39:07.246Z,98779.89
2023-04-01T16:41:56.708Z,98786.02
2023-04-01T16:44:26.487Z,98786.98
2023-04-01T16:46:57.272Z,98790.80
2023-04-01T16:49:40.446Z,98799.50
2023-04-01T16:52:07.313Z,98803.66
2023-04-01T16:54:58.270Z,98812.08
2023-04-01T16:57:43.207Z,98812.85
2023-04-01T17:00:28.220Z,98820.50
2023-04-01T17:03:04.196Z,98824.40
2023-04-01T17:05:40.814Z,98827.44
2023-04-01T17:08:26.584Z,98832.69
2023-04-01T17:11:17.271Z,98833.55
2023-04-01T17:14:21.007Z,98838.77
2023-04-01T17:16:56.799Z,98840.69
2023-04-01T17:20:01.054Z,98845.38
2023-04-01T17:22:33.722Z,98852.09
2023-04-01T17:25:39.399Z,98851.32
2023-04-01T17:28:21.962Z,98855.83
2023-04-01T17:31:04.054Z,98861.02
2023-04-01T17:33:36.953Z,98862.11
2023-04-01T17:36:25.062Z,98871.46
2023-04-01T17:39:19.838Z,98875.80
2023-04-01T17:42:07.288Z,98879.46
2023-04-01T17:45:04.875Z,98889.20
2023-04-01T17:47:46.807Z,98891.85
2023-04-01T17:50:22.422Z,98898.13
2023-04-01T17:53:22.433Z,98905.70
2023-04-01T17:55:59.711Z,98906.11
2023-04-01T17:59:04.426Z,98913.27
2023-04-01T18:01:41.343Z,98916.92
2023-04-01T18:04:41.685Z,98926.31
2023-04-01T18:07:08.299Z,98932.09
2023-04-01T18:09:53.691Z,98937.78
2023-04-01T18:12:39.475Z,98936.20
2023-04-01T18:15:42.889Z,98945.23
2023-04-01T18:18:16.365Z,98946.34
2023-04-01T18:21:09.081Z,98952.41
2023-04-01T18:23:42.773Z,98956.64
2023-04-01T18:26:21.633Z,98960.68
2023-04-01T18:29:24.910Z,98964.16
2023-04-01T18:32:07.713Z,98966.45
2023-04-01T18:35:16.755Z,98973.23
2023-04-01T18:38:00.449Z,98978.44
2023-04-01T18:40:37.428Z,98983.31
2023-04-01T18:43:19.058Z,98985.75
2023-04-01T18:45:58.801Z,98991.27
2023-04-01T18:48:34.972Z,98989.39
2023-04-01T18:51:40.099Z,98998.58
2023-04-01T18:54:45.257Z,98999.80
2023-04-01T18:57:15.146Z,99001.52
2023-04-01T18:59:52.104Z,99003.98
2023-04-01T19:04:42.043Z,99011.30
2023-04-01T19:07:37.562Z,99015.64
2023-04-01T19:10:38.608Z,99019.83
2023-04-01T19:13:47.879Z,99024.15
2023-04-01T19:16:27.910Z,99027.64
2023-04-01T19:19:15.397Z,99036.63
2023-04-01T19:21:57.442Z,99042.16
2023-04-01T19:24:53.754Z,99045.11
2023-04-01T19:27:39.238Z,99049.45
2023-04-01T19:30:36.548Z,99052.95
2023-04-01T19:33:17.920Z,99054.18
2023-04-01T19:36:11.912Z,99060.43
2023-04-01T19:39:04.650Z,99065.96
2023-04-01T19:41:45.445Z,99072.19
2023-04-01T19:44:19.779Z,99079.06
2023-04-01T19:46:56.635Z,99080.13
2023-04-01T19:49:28.033Z,99081.69
2023-04-01T19:52:41.806Z,99084.61
2023-04-01T19:55:36.753Z,99083.90
2023-04-01T19:58:32.406Z,99087.38
2023-04-01T20:01:01.933Z,99089.63
2023-04-01T20:03:51.714Z,99090.31
2023-04-01T20:07:07.733Z,99097.56
2023-04-01T20:09:47.758Z,99098.10
2023-04-01T20:12:21.930Z,99104.33
2023-04-01T20:14:54.762Z,99104.17
2023-04-01T20:17:39.514Z,99103.15
2023-04-01T20:20:12.002Z,99106.07
2023-04-01T20:22:46.747Z,99107.48
2023-04-01T20:25:21.737Z,99113.16
2023-04-01T20:27:58.086Z,99114.37
2023-04-01T20:30:39.463Z,99111.28
2023-04-01T20:33:10.473Z,99115.09
2023-04-01T20:35:51.871Z,99118.89
2023-04-01T20:38:44.661Z,99122.52
2023-04-01T20:41:12.645Z,99125.98
2023-04-01T20:43:55.637Z,99130.45
2023-04-01T20:46:47.547Z,99126.66
2023-04-01T20:49:22.331Z,99138.55
2023-04-01T20:52:26.325Z,99141.69
2023-04-01T20:54:54.324Z,99149.65
2023-04-01T20:57:31.536Z,99149.48
2023-04-01T21:00:05.904Z,99154.35
2023-04-01T21:02:52.362Z,99156.60
2023-04-01T21:05:44.162Z,99161.95
2023-04-01T21:08:28.110Z,99164.52
2023-04-01T21:11:19.911Z,99167.14
2023-04-01T21:13:59.576Z,99168.20
2023-04-01T21:17:03.303Z,99172.51
2023-04-01T21:20:10.710Z,99177.85
2023-04-01T21:23:11.437Z,99184.23
2023-04-01T21:26:04.431Z,99179.61
2023-04-01T21:29:05.133Z,99191.02
2023-04-01T21:32:00.922Z,99194.49
2023-04-01T21:34:45.814Z,99196.23
2023-04-01T21:38:08.470Z,99199.88
2023-04-01T21:40:57.883Z,99201.98
2023-04-01T21:44:04.053Z,99203.88
2023-04-01T21:46:51.818Z,99206.46
2023-04-01T21:49:51.257Z,99207.17
2023-04-01T21:52:45.720Z,99214.23
2023-04-01T21:55:22.962Z,99212.33
2023-04-01T21:58:03.400Z,99214.74
2023-04-01T22:00:39.929Z,99220.77
2023-04-01T22:03:28.063Z,99219.59
2023-04-01T22:06:19.400Z,99223.54
2023-04-01T22:08:57.115Z,99224.58
2023-04-01T22:11:40.488Z,99228.03
2023-04-01T22:14:29.251Z,99233.53
2023-04-01T22:17:06.719Z,99232.31
2023-04-01T22:19:54.616Z,99235.25
2023-04-01T22:22:28.505Z,99238.69
2023-04-01T22:24:59.239Z,99240.05
2023-04-01T22:27:29.863Z,99242.45
2023-04-01T22:30:20.229Z,99241.76
2023-04-01T22:32:51.498Z,99242.96
2023-04-01T22:35:48.015Z,99245.90
2023-04-01T22:38:56.069Z,99252.11
2023-04-01T22:41:30.026Z,99253.65
2023-04-01T22:43:58.967Z,99255.05
2023-04-01T22:46:52.400Z,99260.20
2023-04-01T22:49:33.512Z,99261.92
2023-04-01T22:52:32.556Z,99265.55
2023-04-01T22:55:11.587Z,99273.13
2023-04-01T22:57:59.197Z,99272.96
2023-04-01T23:00:34.332Z,99277.45
2023-04-01T23:03:02.254Z,99278.14
2023-04-01T23:05:32.796Z,99279.01
2023-04-01T23:08:55.367Z,99282.79
2023-04-01T23:11:53.017Z,99278.31
2023-04-01T23:14:30.400Z,99282.28
2023-04-01T23:17:04.364Z,99288.30
2023-04-01T23:19:44.867Z,99289.51
2023-04-01T23:22:37.548Z,99294.32
2023-04-01T23:25:24.686Z,99296.55
2023-04-01T23:28:18.882Z,99294.48
2023-04-01T23:30:49.906Z,99294.48
2023-04-01T23:33:21.090Z,99295.52
2023-04-01T23:35:54.033Z,99300.16
2023-04-01T23:38:25.277Z,99302.06
2023-04-01T23:40:55.739Z,99307.73
2023-04-01T23:43:28.304Z,99308.09
2023-04-01T23:45:57.321Z,99313.76
2023-04-01T23:48:33.364Z,99313.74
2023-04-01T23:51:02.375Z,99322.52
2023-04-01T23:53:35.148Z,99323.57
2023-04-01T23:56:04.543Z,99327.69
2023-04-01T23:58:38.575Z,99326.48
